Time;durP1;ratioP1;P1;durP2;ratioP2;P2;SDS_P1;SDS_P2;PMS_P1;PMS_P2;Temp;Humidity;BMP_temperature;BMP_pressure;BME280_temperature;BME280_humidity;BME280_pressure;Samples;Min_cycle;Max_cycle;Signal;HPM_P1;HPM_P2
2022/11/23 05:02:22;;;;;;;4.35;4.05;;;3.70;99.90;;;;;;5154794;22;20368;-69
2022/11/23 05:04:49;;;;;;;3.20;2.97;;;3.70;99.90;;;;;;5031456;28;20252;-69
2022/11/23 05:07:15;;;;;;;3.38;2.15;;;3.80;99.90;;;;;;5031893;28;20218;-70
2022/11/23 05:09:43;;;;;;;4.45;3.40;;;3.80;99.90;;;;;;5032174;28;20203;-69
2022/11/23 05:12:09;;;;;;;9.02;4.97;;;3.80;99.90;;;;;;5031666;28;20700;-69
2022/11/23 05:14:36;;;;;;;4.13;2.85;;;3.80;99.90;;;;;;5031746;28;20214;-69
2022/11/23 05:17:03;;;;;;;2.72;2.63;;;3.80;99.90;;;;;;5031950;28;20306;-71
2022/11/23 05:19:31;;;;;;;3.22;2.45;;;3.80;99.90;;;;;;5031743;28;20230;-70
2022/11/23 05:21:57;;;;;;;5.93;2.75;;;3.90;99.90;;;;;;5031615;28;20231;-70
2022/11/23 05:24:24;;;;;;;3.60;3.40;;;3.90;99.90;;;;;;5031194;28;20230;-70
2022/11/23 05:26:50;;;;;;;5.75;4.95;;;3.90;99.90;;;;;;5031362;28;20298;-69
2022/11/23 05:29:17;;;;;;;3.70;2.78;;;3.90;99.90;;;;;;5031695;28;20210;-70
2022/11/23 05:31:44;;;;;;;3.53;3.22;;;3.90;99.90;;;;;;5029278;28;20230;-71
2022/11/23 05:34:10;;;;;;;1.88;1.75;;;4.00;99.90;;;;;;5031165;28;20250;-71
2022/11/23 05:36:38;;;;;;;4.70;4.25;;;4.00;99.90;;;;;;5031410;28;20258;-69
2022/11/23 05:39:05;;;;;;;9.05;4.07;;;4.00;99.90;;;;;;5031708;28;20250;-70
2022/11/23 05:41:32;;;;;;;3.78;3.28;;;4.00;99.90;;;;;;5031159;28;20234;-70
2022/11/23 05:43:58;;;;;;;3.53;3.42;;;4.00;99.90;;;;;;5031055;28;20220;-69
2022/11/23 05:46:25;;;;;;;8.13;3.72;;;4.00;99.90;;;;;;5031418;28;20206;-69
2022/11/23 05:48:52;;;;;;;3.70;3.33;;;4.00;99.90;;;;;;5031614;28;20207;-70
2022/11/23 05:51:18;;;;;;;3.42;3.13;;;4.00;99.90;;;;;;5031125;28;20222;-70
2022/11/23 05:53:47;;;;;;;4.38;3.83;;;4.00;99.90;;;;;;5031073;28;20222;-70
2022/11/23 05:56:13;;;;;;;4.25;3.40;;;4.00;99.90;;;;;;5031681;28;20580;-70
2022/11/23 05:58:40;;;;;;;4.88;4.13;;;4.00;99.90;;;;;;5033522;28;20215;-70
2022/11/23 06:01:07;;;;;;;3.00;2.67;;;4.10;99.90;;;;;;5032872;28;20422;-71
2022/11/23 06:03:33;;;;;;;3.67;3.58;;;4.00;99.90;;;;;;5032548;28;20203;-70
2022/11/23 06:06:00;;;;;;;3.33;3.13;;;4.00;99.90;;;;;;5032262;28;20214;-71
2022/11/23 06:08:27;;;;;;;5.85;4.03;;;4.00;99.90;;;;;;5032206;28;20213;-70
2022/11/23 06:10:55;;;;;;;10.68;2.40;;;4.00;99.90;;;;;;5031390;28;20234;-70
2022/11/23 06:13:21;;;;;;;6.72;5.25;;;4.00;99.90;;;;;;5030947;28;20337;-71
2022/11/23 06:15:48;;;;;;;3.00;2.08;;;4.10;99.90;;;;;;5031241;28;20687;-71
2022/11/23 06:18:15;;;;;;;3.85;3.65;;;4.10;99.90;;;;;;5032012;28;20213;-72
2022/11/23 06:20:41;;;;;;;5.30;4.93;;;4.10;99.90;;;;;;5031138;28;20227;-72
2022/11/23 06:23:08;;;;;;;6.55;3.92;;;4.10;99.90;;;;;;5029862;28;20563;-71
2022/11/23 06:25:37;;;;;;;3.35;2.40;;;4.10;99.90;;;;;;5031100;28;20562;-71
2022/11/23 06:28:06;;;;;;;4.50;3.83;;;4.10;99.90;;;;;;5030171;28;20706;-71
2022/11/23 06:30:33;;;;;;;2.55;2.35;;;4.10;99.90;;;;;;5031344;28;20234;-71
2022/11/23 06:33:03;;;;;;;3.17;2.78;;;4.20;99.90;;;;;;5030279;28;20206;-71
2022/11/23 06:35:29;;;;;;;3.75;3.33;;;4.20;99.90;;;;;;5031292;28;20594;-70
2022/11/23 06:37:56;;;;;;;4.20;3.80;;;4.20;99.90;;;;;;5030362;28;20207;-70
2022/11/23 06:40:23;;;;;;;5.22;3.90;;;4.20;99.90;;;;;;5031136;28;20707;-69
2022/11/23 06:42:52;;;;;;;8.30;5.05;;;4.20;99.90;;;;;;5029435;28;20671;-69
2022/11/23 06:45:20;;;;;;;4.15;3.80;;;4.20;99.90;;;;;;5030768;28;20207;-70
2022/11/23 06:47:47;;;;;;;4.32;3.17;;;4.30;99.90;;;;;;5030738;28;20238;-69
2022/11/23 06:50:14;;;;;;;8.23;4.50;;;4.30;99.90;;;;;;5030563;28;20237;-71
2022/11/23 06:52:41;;;;;;;10.65;4.25;;;4.30;99.90;;;;;;5029817;28;20211;-69
2022/11/23 06:55:08;;;;;;;5.38;3.75;;;4.30;99.90;;;;;;5030611;28;20682;-70
2022/11/23 06:57:34;;;;;;;4.22;3.63;;;4.30;99.90;;;;;;5030124;28;20215;-69
2022/11/23 07:00:01;;;;;;;2.83;2.60;;;4.30;99.90;;;;;;5030588;28;20226;-69
2022/11/23 07:02:29;;;;;;;2.13;2.03;;;4.30;99.90;;;;;;5030249;28;20241;-69
2022/11/23 07:04:56;;;;;;;4.63;2.60;;;4.30;99.90;;;;;;5029951;28;20218;-69
2022/11/23 07:07:22;;;;;;;8.07;4.35;;;4.30;99.90;;;;;;5030165;28;20631;-70
2022/11/23 07:09:49;;;;;;;4.03;3.67;;;4.30;99.90;;;;;;5024595;28;20198;-70
2022/11/23 07:12:16;;;;;;;6.30;3.75;;;4.30;99.90;;;;;;5029835;28;20231;-70
2022/11/23 07:14:42;;;;;;;9.93;4.28;;;4.30;99.90;;;;;;5029741;28;20222;-70
2022/11/23 07:17:09;;;;;;;4.97;4.55;;;4.30;99.90;;;;;;5030571;28;20215;-69
2022/11/23 07:19:37;;;;;;;6.03;5.60;;;4.30;99.90;;;;;;5031693;28;20231;-70
2022/11/23 07:22:04;;;;;;;6.22;3.60;;;4.40;99.90;;;;;;5034083;28;20227;-69
2022/11/23 07:24:30;;;;;;;3.20;3.10;;;4.40;99.90;;;;;;5033991;28;20710;-70
2022/11/23 07:26:57;;;;;;;11.85;5.78;;;4.40;99.90;;;;;;5034020;28;20217;-69
2022/11/23 07:29:24;;;;;;;5.68;3.75;;;4.40;99.90;;;;;;5035069;28;20655;-70
2022/11/23 07:31:51;;;;;;;5.47;5.10;;;4.40;99.90;;;;;;5035490;28;20227;-70
2022/11/23 07:34:17;;;;;;;3.92;2.15;;;4.40;99.90;;;;;;5036451;28;20214;-69
2022/11/23 07:36:45;;;;;;;5.32;5.05;;;4.50;99.90;;;;;;5035880;28;20302;-70
2022/11/23 07:39:13;;;;;;;9.77;8.93;;;4.50;99.90;;;;;;5035314;28;20223;-69
2022/11/23 07:41:39;;;;;;;4.05;3.95;;;4.50;99.90;;;;;;5035354;28;20326;-69
2022/11/23 07:44:06;;;;;;;5.43;4.90;;;4.50;99.90;;;;;;5033824;28;20219;-70
2022/11/23 07:46:33;;;;;;;4.55;2.60;;;4.50;99.90;;;;;;5039077;28;20221;-72
2022/11/23 07:49:01;;;;;;;3.30;3.00;;;4.50;99.90;;;;;;5039749;28;20302;-73
2022/11/23 07:51:27;;;;;;;3.92;3.75;;;4.50;99.90;;;;;;5037460;28;20223;-73
2022/11/23 07:53:56;;;;;;;3.55;2.35;;;4.50;99.90;;;;;;5036736;28;20279;-72
2022/11/23 07:56:23;;;;;;;2.38;2.28;;;4.50;99.90;;;;;;5041229;28;20211;-72
2022/11/23 07:58:50;;;;;;;3.63;3.40;;;4.50;99.90;;;;;;5041413;28;20209;-72
2022/11/23 08:01:17;;;;;;;4.97;2.83;;;4.60;99.90;;;;;;5042339;28;20223;-72
2022/11/23 08:03:44;;;;;;;4.28;3.97;;;4.60;99.90;;;;;;5042760;28;20234;-72
2022/11/23 08:06:11;;;;;;;3.05;2.78;;;4.60;99.90;;;;;;5041372;28;20686;-72
2022/11/23 08:08:38;;;;;;;4.45;4.05;;;4.60;99.90;;;;;;5043297;28;20206;-72
2022/11/23 08:11:06;;;;;;;2.45;2.25;;;4.60;99.90;;;;;;5042741;28;20223;-72
2022/11/23 08:13:34;;;;;;;5.25;2.95;;;4.70;99.90;;;;;;5042650;28;20219;-72
2022/11/23 08:16:01;;;;;;;3.22;2.97;;;4.70;99.90;;;;;;5042558;28;20213;-71
2022/11/23 08:18:28;;;;;;;4.80;3.67;;;4.70;99.90;;;;;;5041884;28;20214;-72
2022/11/23 08:20:58;;;;;;;2.70;2.50;;;4.70;99.90;;;;;;5042128;28;20237;-71
2022/11/23 08:23:25;;;;;;;3.53;3.22;;;4.70;99.90;;;;;;5042597;28;20207;-72
2022/11/23 08:25:52;;;;;;;8.27;3.15;;;4.80;99.90;;;;;;5042230;28;20203;-69
2022/11/23 08:28:20;;;;;;;5.80;5.35;;;4.80;99.90;;;;;;5035831;28;20313;-70
2022/11/23 08:30:48;;;;;;;22.60;2.72;;;4.80;99.90;;;;;;5034761;28;20714;-71
2022/11/23 08:33:15;;;;;;;6.97;3.35;;;4.80;99.90;;;;;;5034551;28;20218;-72
2022/11/23 08:35:42;;;;;;;4.68;3.67;;;4.90;99.90;;;;;;5034949;28;20214;-72
2022/11/23 08:38:10;;;;;;;2.58;2.25;;;4.90;99.90;;;;;;5033073;28;20204;-73
2022/11/23 08:40:37;;;;;;;4.00;3.80;;;4.90;99.90;;;;;;5033061;28;20236;-72
2022/11/23 08:43:04;;;;;;;3.25;3.15;;;4.90;99.90;;;;;;5032302;28;20219;-73
2022/11/23 08:45:32;;;;;;;2.47;2.05;;;5.00;99.90;;;;;;5033583;28;20206;-73
2022/11/23 08:47:59;;;;;;;3.45;3.13;;;5.00;99.90;;;;;;5028259;28;20208;-73
2022/11/23 08:50:28;;;;;;;2.65;2.55;;;5.00;99.90;;;;;;5031796;28;20226;-72
2022/11/23 08:52:55;;;;;;;4.85;4.43;;;5.00;99.90;;;;;;5032654;28;20222;-71
2022/11/23 08:55:22;;;;;;;6.07;3.60;;;5.10;99.90;;;;;;5033059;28;20742;-73
2022/11/23 08:57:49;;;;;;;3.58;2.72;;;5.10;99.90;;;;;;5032396;28;20232;-71
2022/11/23 09:00:16;;;;;;;3.28;2.95;;;5.20;99.90;;;;;;5032936;28;20277;-69
2022/11/23 09:02:44;;;;;;;2.05;2.05;;;5.20;99.90;;;;;;5032393;28;20218;-72
2022/11/23 09:05:11;;;;;;;7.10;3.03;;;5.20;99.90;;;;;;5033057;28;20212;-71
2022/11/23 09:07:38;;;;;;;3.75;3.45;;;5.30;99.90;;;;;;5032744;28;20218;-70
2022/11/23 09:10:06;;;;;;;5.43;3.80;;;5.40;99.90;;;;;;5033155;28;20226;-71
2022/11/23 09:12:33;;;;;;;3.83;3.28;;;5.40;99.90;;;;;;5032193;28;20234;-68
2022/11/23 09:15:00;;;;;;;5.53;4.43;;;5.40;99.90;;;;;;5032817;28;20215;-70
2022/11/23 09:17:26;;;;;;;5.32;3.95;;;5.40;99.90;;;;;;5032230;28;20215;-71
2022/11/23 09:19:55;;;;;;;2.53;2.45;;;5.40;99.90;;;;;;5032612;28;20290;-72
2022/11/23 09:22:21;;;;;;;12.38;3.42;;;5.50;99.90;;;;;;5033713;28;20227;-72
2022/11/23 09:24:48;;;;;;;4.60;3.97;;;5.50;99.90;;;;;;5033879;28;20215;-74
2022/11/23 09:27:14;;;;;;;4.50;2.97;;;5.50;99.90;;;;;;5033693;28;20237;-72
2022/11/23 09:29:41;;;;;;;3.00;2.85;;;5.60;99.90;;;;;;5034307;28;20298;-72
2022/11/23 09:32:08;;;;;;;2.17;1.95;;;5.60;99.90;;;;;;5034246;28;20231;-73
2022/11/23 09:34:35;;;;;;;2.70;2.55;;;5.70;99.90;;;;;;5033738;28;20212;-72
2022/11/23 09:37:03;;;;;;;4.53;3.67;;;5.70;99.90;;;;;;5031660;28;20208;-73
2022/11/23 09:39:29;;;;;;;7.30;3.83;;;5.60;99.90;;;;;;5031986;28;20215;-71
2022/11/23 09:42:21;;;;;;;3.13;2.88;;;5.60;99.90;;;;;;5032818;28;20236;-74
2022/11/23 09:45:38;;;;;;;2.33;2.20;;;5.60;99.90;;;;;;5033328;28;20207;-74
2022/11/23 09:48:28;;;;;;;4.35;2.05;;;5.60;99.90;;;;;;5032217;28;20254;-74
2022/11/23 09:51:01;;;;;;;4.32;4.07;;;5.60;99.90;;;;;;5022758;28;20634;-71
2022/11/23 09:53:37;;;;;;;2.40;1.70;;;5.70;99.90;;;;;;5032729;28;20214;-73
2022/11/23 09:56:05;;;;;;;8.63;3.92;;;5.70;99.90;;;;;;5032350;28;20305;-72
2022/11/23 09:58:36;;;;;;;2.40;2.33;;;5.90;99.90;;;;;;5032713;28;20216;-73
2022/11/23 10:01:06;;;;;;;2.65;2.20;;;5.90;99.90;;;;;;5032936;28;20227;-71
2022/11/23 10:03:37;;;;;;;2.78;2.25;;;6.00;99.90;;;;;;5033278;28;20207;-72
2022/11/23 10:06:14;;;;;;;9.68;4.40;;;6.00;99.90;;;;;;5032564;28;20231;-72
2022/11/23 10:08:52;;;;;;;4.93;3.85;;;6.00;99.90;;;;;;5031491;28;20203;-74
2022/11/23 10:11:38;;;;;;;2.55;2.45;;;6.00;99.90;;;;;;5029578;28;20564;-74
2022/11/23 10:14:23;;;;;;;2.40;2.25;;;6.00;99.90;;;;;;5031953;28;20663;-72
2022/11/23 10:16:59;;;;;;;3.17;2.88;;;6.10;99.90;;;;;;5032308;28;20209;-72
2022/11/23 10:19:38;;;;;;;9.10;3.03;;;6.10;99.90;;;;;;5032399;28;20233;-73
2022/11/23 10:22:10;;;;;;;2.70;2.63;;;6.20;99.90;;;;;;5031491;28;20236;-74
2022/11/23 10:24:43;;;;;;;4.95;2.58;;;6.20;99.90;;;;;;5031452;28;20208;-70
2022/11/23 10:27:15;;;;;;;2.40;2.15;;;6.30;99.90;;;;;;5030579;28;20208;-71
2022/11/23 10:29:42;;;;;;;2.72;2.65;;;6.40;99.90;;;;;;5031052;28;20211;-71
2022/11/23 10:32:22;;;;;;;12.65;3.08;;;6.50;99.90;;;;;;5031333;28;20279;-71
2022/11/23 10:34:56;;;;;;;3.05;2.17;;;6.70;99.90;;;;;;5031556;28;20231;-70
2022/11/23 10:37:23;;;;;;;3.67;2.33;;;6.80;99.90;;;;;;5030971;28;20207;-71
2022/11/23 10:39:51;;;;;;;3.75;2.83;;;6.80;99.90;;;;;;5031226;28;20582;-70
2022/11/23 10:42:23;;;;;;;4.80;3.08;;;6.90;99.90;;;;;;5030470;28;20331;-71
2022/11/23 10:44:51;;;;;;;2.10;2.00;;;6.90;99.90;;;;;;5030883;28;20216;-71
2022/11/23 10:47:36;;;;;;;5.60;2.67;;;7.00;99.90;;;;;;5031019;28;20212;-71
2022/11/23 10:50:19;;;;;;;3.08;2.85;;;7.00;99.90;;;;;;5031270;28;20215;-71
2022/11/23 10:52:51;;;;;;;5.45;5.03;;;7.10;99.90;;;;;;5030389;28;20217;-71
2022/11/23 10:55:22;;;;;;;4.53;2.55;;;7.20;99.90;;;;;;5035593;28;20223;-71
2022/11/23 10:57:49;;;;;;;4.53;4.18;;;7.20;99.90;;;;;;5034820;28;20213;-70
2022/11/23 11:00:19;;;;;;;3.75;2.38;;;7.20;99.90;;;;;;5032714;28;20591;-70
2022/11/23 11:02:47;;;;;;;2.67;2.60;;;7.20;99.90;;;;;;5034585;28;20227;-71
2022/11/23 11:05:28;;;;;;;6.70;3.03;;;7.30;99.90;;;;;;5035181;28;20209;-71
2022/11/23 11:07:57;;;;;;;3.45;3.15;;;7.30;99.90;;;;;;5034961;28;20308;-69
2022/11/23 11:10:38;;;;;;;4.55;3.40;;;7.30;99.90;;;;;;5035646;28;20598;-72
2022/11/23 11:13:25;;;;;;;2.00;2.00;;;7.30;99.90;;;;;;5034116;28;20371;-72
2022/11/23 11:15:53;;;;;;;4.13;3.65;;;7.40;99.90;;;;;;5035489;28;20207;-75
2022/11/23 11:18:20;;;;;;;3.13;2.92;;;7.40;99.90;;;;;;5034756;28;20294;-71
2022/11/23 11:20:47;;;;;;;4.90;3.63;;;7.40;99.90;;;;;;5034778;28;20224;-71
2022/11/23 11:23:20;;;;;;;2.50;2.40;;;7.50;99.90;;;;;;5033433;28;20217;-71
2022/11/23 11:25:51;;;;;;;2.33;2.13;;;7.50;99.90;;;;;;5034437;28;20213;-70
2022/11/23 11:28:28;;;;;;;2.88;2.70;;;7.50;99.90;;;;;;5034306;28;20570;-71
2022/11/23 11:31:04;;;;;;;4.22;2.88;;;7.60;99.90;;;;;;5033999;28;20235;-71
2022/11/23 11:33:37;;;;;;;2.45;2.25;;;7.60;99.90;;;;;;5033744;28;20239;-71
2022/11/23 11:36:06;;;;;;;6.22;3.40;;;7.60;99.90;;;;;;5033749;28;20213;-72
2022/11/23 11:38:36;;;;;;;3.10;2.75;;;7.60;99.90;;;;;;5030477;28;20292;-70
2022/11/23 11:41:08;;;;;;;1.90;1.90;;;7.70;99.90;;;;;;5033506;28;20259;-69
2022/11/23 11:43:38;;;;;;;2.50;2.40;;;7.70;99.90;;;;;;5034216;28;20323;-70
2022/11/23 11:46:12;;;;;;;3.20;3.10;;;7.70;99.90;;;;;;5034064;28;20220;-70
2022/11/23 11:48:45;;;;;;;5.63;3.50;;;7.70;99.90;;;;;;5033841;28;20220;-71
2022/11/23 11:51:18;;;;;;;2.80;2.63;;;7.70;99.90;;;;;;5033519;28;20698;-70
2022/11/23 11:53:53;;;;;;;1.95;1.95;;;7.70;99.90;;;;;;5033525;28;20264;-70
2022/11/23 11:56:27;;;;;;;2.45;2.35;;;7.80;99.90;;;;;;5033218;28;20679;-71
2022/11/23 11:58:59;;;;;;;3.90;2.65;;;7.80;99.90;;;;;;5034221;28;20209;-71
2022/11/23 12:01:33;;;;;;;2.05;1.95;;;7.90;99.90;;;;;;5033216;28;20237;-70
2022/11/23 12:04:05;;;;;;;2.53;2.38;;;7.90;99.90;;;;;;5033173;28;20607;-71
2022/11/23 12:06:37;;;;;;;9.82;2.72;;;7.90;99.90;;;;;;5032246;28;20213;-72
2022/11/23 12:09:11;;;;;;;2.10;1.58;;;7.90;99.90;;;;;;5033318;28;20690;-70
2022/11/23 12:11:39;;;;;;;2.15;2.08;;;7.80;99.90;;;;;;5032945;28;20240;-70
2022/11/23 12:14:12;;;;;;;2.50;2.35;;;7.80;99.90;;;;;;5033146;28;20221;-70
2022/11/23 12:16:50;;;;;;;2.50;2.40;;;7.80;99.90;;;;;;5033510;28;20213;-73
2022/11/23 12:19:20;;;;;;;3.20;2.60;;;7.80;99.90;;;;;;5033910;28;20216;-71
2022/11/23 12:22:10;;;;;;;4.43;2.78;;;7.80;99.90;;;;;;5032956;28;20331;-70
2022/11/23 12:25:01;;;;;;;4.90;3.75;;;7.90;99.90;;;;;;5032776;28;20223;-73
2022/11/23 12:27:46;;;;;;;3.63;1.95;;;7.90;99.90;;;;;;5032525;28;20224;-71
2022/11/23 12:30:21;;;;;;;7.80;2.78;;;7.90;99.90;;;;;;5032852;28;20396;-70
2022/11/23 12:33:15;;;;;;;3.38;2.85;;;7.90;99.90;;;;;;5032178;28;20555;-71
2022/11/23 12:36:09;;;;;;;3.00;2.25;;;8.00;99.90;;;;;;5016894;28;20218;-71
2022/11/23 12:38:45;;;;;;;1.63;1.52;;;8.00;99.90;;;;;;5029257;28;20221;-72
2022/11/23 12:41:23;;;;;;;3.42;3.15;;;8.00;99.90;;;;;;5032445;28;20236;-71
2022/11/23 12:44:29;;;;;;;2.17;2.08;;;8.00;99.90;;;;;;5032378;28;20228;-70
2022/11/23 12:47:01;;;;;;;2.05;1.95;;;8.00;99.90;;;;;;5032732;28;20204;-70
2022/11/23 12:49:38;;;;;;;2.85;2.75;;;8.00;99.90;;;;;;5033017;28;20208;-71
2022/11/23 12:52:23;;;;;;;1.00;1.00;;;8.00;99.90;;;;;;5032240;28;20236;-71
2022/11/23 12:54:59;;;;;;;1.38;1.38;;;8.00;99.90;;;;;;5031997;28;20284;-71
2022/11/23 12:57:31;;;;;;;3.17;2.15;;;8.00;99.90;;;;;;5032184;28;20201;-71
2022/11/23 13:00:05;;;;;;;2.03;1.92;;;7.90;99.90;;;;;;5030080;28;20212;-70
2022/11/23 13:03:18;;;;;;;2.35;2.25;;;7.80;99.90;;;;;;5031731;28;20236;-76
2022/11/23 13:06:02;;;;;;;3.40;3.13;;;7.70;99.90;;;;;;4974331;28;20220;-69
2022/11/23 13:08:50;;;;;;;4.28;2.80;;;7.70;99.90;;;;;;5023875;28;20705;-70
2022/11/23 13:11:30;;;;;;;1.48;1.45;;;7.80;99.90;;;;;;5028361;28;20224;-69
2022/11/23 13:14:13;;;;;;;3.22;2.40;;;7.80;99.90;;;;;;5021233;28;20584;-69
2022/11/23 13:17:07;;;;;;;3.92;3.47;;;7.90;99.90;;;;;;5030406;28;20695;-69
2022/11/23 13:20:05;;;;;;;9.75;1.83;;;7.90;99.90;;;;;;5026848;28;20209;-70
2022/11/23 13:22:32;;;;;;;1.15;1.15;;;8.00;99.90;;;;;;4984119;28;20673;-70
2022/11/23 13:25:13;;;;;;;2.60;2.50;;;8.00;99.90;;;;;;5029794;28;20212;-69
2022/11/23 13:27:54;;;;;;;1.95;1.88;;;8.10;99.90;;;;;;5022257;28;20588;-71
2022/11/23 13:30:41;;;;;;;3.05;2.40;;;8.10;99.90;;;;;;5028813;28;20339;-70
2022/11/23 13:33:35;;;;;;;1.60;1.38;;;8.10;99.90;;;;;;5029784;28;20267;-70
2022/11/23 13:36:02;;;;;;;7.78;2.70;;;8.10;99.90;;;;;;5025158;28;20205;-71
2022/11/23 13:38:40;;;;;;;1.65;1.55;;;8.10;99.90;;;;;;5030464;28;20208;-71
2022/11/23 13:41:55;;;;;;;2.20;2.03;;;8.10;99.90;;;;;;5028823;28;20225;-70
2022/11/23 13:44:26;;;;;;;11.35;1.88;;;8.10;99.90;;;;;;5027317;28;20219;-70
2022/11/23 13:47:18;;;;;;;6.43;2.28;;;8.00;99.90;;;;;;5029314;28;20209;-72
2022/11/23 13:49:47;;;;;;;2.08;2.05;;;8.00;99.90;;;;;;5022197;28;20216;-71
2022/11/23 13:52:29;;;;;;;2.58;2.47;;;8.00;99.90;;;;;;5027664;28;20216;-71
2022/11/23 13:54:59;;;;;;;2.80;2.60;;;7.90;99.90;;;;;;5026122;28;20274;-70
2022/11/23 13:57:26;;;;;;;3.22;1.00;;;7.90;99.90;;;;;;5033322;28;20213;-71
2022/11/23 13:59:53;;;;;;;3.72;3.38;;;7.80;99.90;;;;;;5034612;28;20231;-72
2022/11/23 14:02:30;;;;;;;3.25;2.05;;;7.80;99.90;;;;;;5032807;28;20696;-71
2022/11/23 14:05:52;;;;;;;2.70;2.20;;;7.70;99.90;;;;;;5029291;28;20213;-74
2022/11/23 14:08:20;;;;;;;1.63;1.63;;;7.70;99.90;;;;;;5024850;28;20220;-72
2022/11/23 14:10:49;;;;;;;0.30;0.30;;;7.60;99.90;;;;;;5033874;28;20243;-72
2022/11/23 14:13:19;;;;;;;2.40;2.00;;;7.70;99.90;;;;;;5031953;28;20211;-72
2022/11/23 14:15:56;;;;;;;3.72;2.35;;;7.70;99.90;;;;;;5029803;28;20217;-71
2022/11/23 14:18:46;;;;;;;1.73;1.73;;;7.70;99.90;;;;;;5030792;28;20203;-72
2022/11/23 14:21:23;;;;;;;1.83;1.75;;;7.80;99.90;;;;;;5028327;28;20235;-72
2022/11/23 14:24:20;;;;;;;1.35;1.25;;;7.80;99.90;;;;;;5021892;28;20261;-73
2022/11/23 14:27:05;;;;;;;2.03;1.58;;;7.80;99.90;;;;;;5022943;28;20209;-71
2022/11/23 14:29:55;;;;;;;1.15;1.15;;;7.80;99.90;;;;;;5029454;28;20230;-73
2022/11/23 14:32:35;;;;;;;1.67;1.67;;;7.80;99.90;;;;;;5026439;28;20704;-71
2022/11/23 14:35:18;;;;;;;2.10;1.92;;;7.80;99.90;;;;;;5024770;28;20698;-71
2022/11/23 14:37:59;;;;;;;1.73;1.73;;;7.80;99.90;;;;;;5023084;28;20232;-71
2022/11/23 14:40:30;;;;;;;2.40;1.38;;;7.80;99.90;;;;;;5029957;28;20583;-71
2022/11/23 14:42:57;;;;;;;1.63;1.52;;;7.80;99.90;;;;;;5028296;28;20225;-71
2022/11/23 14:45:29;;;;;;;2.00;1.90;;;7.70;99.90;;;;;;5029056;28;20231;-73
2022/11/23 14:47:56;;;;;;;4.05;2.20;;;7.80;99.90;;;;;;5028387;28;20220;-72
2022/11/23 14:50:24;;;;;;;4.35;2.20;;;7.80;99.90;;;;;;5029499;28;20209;-72
2022/11/23 14:52:54;;;;;;;5.25;2.33;;;7.80;99.90;;;;;;5023573;28;20207;-71
2022/11/23 14:55:23;;;;;;;1.50;1.50;;;7.70;99.90;;;;;;5029923;28;20232;-73
2022/11/23 14:57:51;;;;;;;2.00;1.90;;;7.70;99.90;;;;;;5030161;28;20196;-71
2022/11/23 15:00:29;;;;;;;2.60;1.92;;;7.70;99.90;;;;;;5011154;28;20235;-72
2022/11/23 15:02:58;;;;;;;2.35;2.25;;;7.60;99.90;;;;;;5019705;28;20236;-71
2022/11/23 15:05:29;;;;;;;5.65;2.28;;;7.60;99.90;;;;;;5028620;28;20281;-71
2022/11/23 15:08:02;;;;;;;2.00;1.90;;;7.60;99.90;;;;;;5028506;28;20227;-71
2022/11/23 15:10:38;;;;;;;2.80;2.20;;;7.60;99.90;;;;;;5030614;28;20216;-71
2022/11/23 15:13:21;;;;;;;3.90;2.65;;;7.60;99.90;;;;;;5028033;28;20227;-71
2022/11/23 15:15:51;;;;;;;1.65;1.23;;;7.50;99.90;;;;;;5019750;28;20326;-70
2022/11/23 15:18:28;;;;;;;6.85;2.42;;;7.50;99.90;;;;;;5029561;28;20282;-72
2022/11/23 15:20:57;;;;;;;1.52;1.50;;;7.50;99.90;;;;;;5027660;28;20286;-73
2022/11/23 15:23:29;;;;;;;1.50;1.50;;;7.40;99.90;;;;;;5023522;28;20576;-71
2022/11/23 15:26:00;;;;;;;1.08;1.08;;;7.30;99.90;;;;;;5027939;28;20213;-73
2022/11/23 15:28:28;;;;;;;4.80;2.13;;;7.20;99.90;;;;;;5028912;28;20212;-71
2022/11/23 15:30:55;;;;;;;0.95;0.95;;;7.20;99.90;;;;;;5023672;28;20247;-73
2022/11/23 15:33:23;;;;;;;2.33;2.08;;;7.10;99.90;;;;;;5027208;28;20232;-72
2022/11/23 15:35:52;;;;;;;2.50;2.30;;;7.00;99.90;;;;;;5030227;28;20310;-72
2022/11/23 15:38:19;;;;;;;2.33;1.45;;;7.00;99.90;;;;;;5029130;28;20338;-72
2022/11/23 15:40:49;;;;;;;2.75;2.60;;;7.00;99.90;;;;;;5031127;28;20227;-72
2022/11/23 15:43:18;;;;;;;8.27;1.83;;;6.90;99.90;;;;;;5031796;28;20233;-72
2022/11/23 15:46:03;;;;;;;1.95;1.85;;;6.90;99.90;;;;;;5033194;28;20262;-71
2022/11/23 15:48:32;;;;;;;2.35;2.17;;;6.80;99.90;;;;;;5024300;28;20215;-71
2022/11/23 15:51:01;;;;;;;1.83;1.83;;;6.80;99.90;;;;;;5032158;28;20589;-70
2022/11/23 15:53:30;;;;;;;2.03;1.73;;;6.70;99.90;;;;;;5033050;28;20201;-73
2022/11/23 15:56:02;;;;;;;2.53;2.42;;;6.60;99.90;;;;;;5029130;28;20302;-72
2022/11/23 15:58:30;;;;;;;7.63;3.03;;;6.60;99.90;;;;;;5032088;28;20224;-71
2022/11/23 16:01:05;;;;;;;2.47;1.48;;;6.50;99.90;;;;;;5029945;28;20239;-71
2022/11/23 16:03:40;;;;;;;1.35;1.35;;;6.50;99.90;;;;;;5028685;28;20228;-71
2022/11/23 16:06:36;;;;;;;3.55;1.42;;;6.40;99.90;;;;;;5026703;28;20609;-70
2022/11/23 16:09:24;;;;;;;1.60;1.52;;;6.40;99.90;;;;;;5026309;28;20579;-70
2022/11/23 16:11:52;;;;;;;4.15;3.75;;;6.40;99.90;;;;;;5031624;28;20248;-69
2022/11/23 16:14:27;;;;;;;1.75;1.60;;;6.30;99.90;;;;;;5033069;28;20370;-70
2022/11/23 16:17:01;;;;;;;10.68;3.15;;;6.30;99.90;;;;;;5029517;28;20198;-71
2022/11/23 16:19:30;;;;;;;4.43;2.33;;;6.20;99.90;;;;;;5031597;28;20227;-72
2022/11/23 16:22:01;;;;;;;2.67;2.50;;;6.20;99.90;;;;;;5030942;28;20231;-72
2022/11/23 16:24:28;;;;;;;2.60;1.38;;;6.10;99.90;;;;;;5024600;28;20204;-70
2022/11/23 16:26:56;;;;;;;2.35;2.30;;;6.10;99.90;;;;;;5012426;28;20333;-71
2022/11/23 16:29:24;;;;;;;1.00;1.00;;;6.10;99.90;;;;;;5031886;28;20214;-71
2022/11/23 16:31:58;;;;;;;3.38;3.08;;;6.10;99.90;;;;;;5030415;28;20255;-70
2022/11/23 16:34:26;;;;;;;8.52;3.78;;;6.10;99.90;;;;;;5030244;28;20219;-71
2022/11/23 16:36:54;;;;;;;2.33;2.20;;;6.00;99.90;;;;;;5031871;28;20286;-70
2022/11/23 16:39:21;;;;;;;3.53;2.85;;;6.00;99.90;;;;;;5023070;28;20613;-72
2022/11/23 16:41:48;;;;;;;2.20;2.10;;;6.00;99.90;;;;;;5031130;28;20223;-71
2022/11/23 16:44:16;;;;;;;4.30;2.30;;;5.90;99.90;;;;;;5029777;28;20211;-72
2022/11/23 16:46:43;;;;;;;2.85;2.70;;;5.90;99.90;;;;;;5030762;28;20562;-71
2022/11/23 16:49:16;;;;;;;1.52;1.52;;;5.90;99.90;;;;;;5031158;28;20203;-70
2022/11/23 16:51:43;;;;;;;1.85;1.77;;;5.80;99.90;;;;;;5020969;28;20235;-69
2022/11/23 16:54:10;;;;;;;1.60;1.60;;;5.80;99.90;;;;;;5030791;28;20200;-70
2022/11/23 16:56:37;;;;;;;0.50;0.50;;;5.80;99.90;;;;;;5029787;28;20239;-70
2022/11/23 16:59:04;;;;;;;2.58;2.58;;;5.80;99.90;;;;;;5031200;28;20632;-70
2022/11/23 17:01:33;;;;;;;2.30;2.20;;;5.80;99.90;;;;;;5030150;28;20238;-69
2022/11/23 17:03:59;;;;;;;3.53;2.03;;;5.80;99.90;;;;;;5029755;28;20219;-71
2022/11/23 17:06:26;;;;;;;2.60;2.50;;;5.80;99.90;;;;;;5028086;28;20664;-69
2022/11/23 17:12:17;;;;;;;2.80;2.58;;;5.70;99.90;;;;;;5019351;28;20213;-70
2022/11/23 17:14:46;;;;;;;1.27;1.17;;;5.70;99.90;;;;;;5028315;28;20718;-71
2022/11/23 17:17:19;;;;;;;2.17;1.58;;;5.70;99.90;;;;;;5021876;28;20211;-70
2022/11/23 17:19:47;;;;;;;3.92;1.75;;;5.70;99.90;;;;;;5030796;28;20317;-70
2022/11/23 17:22:14;;;;;;;1.40;1.30;;;5.70;99.90;;;;;;5028935;28;20231;-69
2022/11/23 17:24:41;;;;;;;1.65;1.65;;;5.70;99.90;;;;;;5029895;28;20207;-71
2022/11/23 17:27:13;;;;;;;4.13;2.25;;;5.70;99.90;;;;;;5030561;28;20218;-70
2022/11/23 17:29:41;;;;;;;2.42;2.33;;;5.70;99.90;;;;;;5028724;28;20223;-71
2022/11/23 17:32:10;;;;;;;2.85;1.70;;;5.70;99.90;;;;;;5030886;28;20316;-70
2022/11/23 17:34:38;;;;;;;2.25;2.20;;;5.70;99.90;;;;;;5026221;28;20525;-70
2022/11/23 17:37:06;;;;;;;3.80;2.45;;;5.70;99.90;;;;;;5029422;28;20210;-71
2022/11/23 17:39:33;;;;;;;1.80;1.70;;;5.70;99.90;;;;;;5029289;28;20204;-70
2022/11/23 17:41:59;;;;;;;1.20;1.20;;;5.70;99.90;;;;;;5029712;28;20238;-69
2022/11/23 17:44:26;;;;;;;4.55;4.15;;;5.60;99.90;;;;;;5029161;28;20235;-70
2022/11/23 17:46:57;;;;;;;2.40;2.30;;;5.60;99.90;;;;;;5028891;28;20202;-70
2022/11/23 17:49:27;;;;;;;6.93;2.60;;;5.60;99.90;;;;;;5029381;28;20555;-70
2022/11/23 17:51:55;;;;;;;2.53;2.33;;;5.60;99.90;;;;;;5028862;28;20298;-69
2022/11/23 17:54:21;;;;;;;2.40;2.30;;;5.50;99.90;;;;;;5030004;28;20613;-70
2022/11/23 17:56:50;;;;;;;1.25;1.25;;;5.50;99.90;;;;;;5025680;28;20210;-69
2022/11/23 17:59:16;;;;;;;2.45;2.45;;;5.50;99.90;;;;;;5029346;28;20207;-69
2022/11/23 18:01:43;;;;;;;4.50;1.35;;;5.50;99.90;;;;;;5026000;28;20250;-70
2022/11/23 18:04:10;;;;;;;1.70;1.60;;;5.50;99.90;;;;;;5025713;28;20227;-71
2022/11/23 18:06:37;;;;;;;1.50;1.45;;;5.50;99.90;;;;;;5024990;28;20215;-71
2022/11/23 18:09:05;;;;;;;5.45;4.30;;;5.40;99.90;;;;;;5030207;28;20204;-69
2022/11/23 18:11:32;;;;;;;2.53;2.38;;;5.30;99.90;;;;;;5025424;28;20254;-70
2022/11/23 18:13:59;;;;;;;2.33;2.05;;;5.40;99.90;;;;;;5028921;28;20199;-70
2022/11/23 18:16:25;;;;;;;4.45;2.45;;;5.30;99.90;;;;;;5028683;28;20222;-70
2022/11/23 18:18:52;;;;;;;2.53;2.47;;;5.30;99.90;;;;;;5023725;28;20200;-71
2022/11/23 18:21:19;;;;;;;2.20;1.77;;;5.20;99.90;;;;;;5028098;28;20243;-69
2022/11/23 18:23:46;;;;;;;8.65;4.05;;;5.20;99.90;;;;;;5027806;28;20239;-71
2022/11/23 18:26:25;;;;;;;1.67;1.58;;;5.20;99.90;;;;;;5025937;28;20213;-70